createdAt,value
2019-05-17T00:01:47.206Z,16.21
2019-05-17T00:04:16.770Z,16.22
2019-05-17T00:06:47.693Z,16.26
2019-05-17T00:09:17.665Z,16.29
2019-05-17T00:11:47.492Z,16.34
2019-05-17T00:14:16.939Z,16.31
2019-05-17T00:16:47.066Z,16.32
2019-05-17T00:19:17.123Z,16.32
2019-05-17T00:21:47.556Z,16.33
2019-05-17T00:24:18.252Z,16.34
2019-05-17T00:26:48.034Z,16.32
2019-05-17T00:29:17.480Z,16.32
2019-05-17T00:31:46.969Z,16.33
2019-05-17T00:34:16.900Z,16.33
2019-05-17T00:36:47.028Z,16.37
2019-05-17T00:39:16.833Z,16.35
2019-05-17T00:41:47.106Z,16.33
2019-05-17T00:44:17.007Z,16.32
2019-05-17T00:46:46.864Z,16.30
2019-05-17T00:49:17.181Z,16.30
2019-05-17T00:51:47.550Z,16.30
2019-05-17T00:54:17.566Z,16.26
2019-05-17T00:56:47.433Z,16.25
2019-05-17T00:59:17.240Z,16.24
2019-05-17T01:01:46.995Z,16.22
2019-05-17T01:04:17.354Z,16.21
2019-05-17T01:06:47.093Z,16.20
2019-05-17T01:09:17.117Z,16.21
2019-05-17T01:11:47.354Z,16.20
2019-05-17T01:14:17.693Z,16.18
2019-05-17T01:16:47.481Z,16.18
2019-05-17T01:19:17.247Z,16.16
2019-05-17T01:21:47.495Z,16.15
2019-05-17T01:24:17.567Z,16.15
2019-05-17T01:26:47.252Z,16.15
2019-05-17T01:29:17.471Z,16.15
2019-05-17T01:31:47.611Z,16.11
2019-05-17T01:34:17.181Z,16.08
2019-05-17T01:36:48.863Z,16.07
2019-05-17T01:39:21.319Z,16.06
2019-05-17T01:41:49.520Z,16.03
2019-05-17T01:44:18.994Z,16.00
2019-05-17T01:46:48.583Z,15.96
2019-05-17T01:49:18.093Z,15.92
2019-05-17T01:51:47.476Z,15.90
2019-05-17T01:54:17.604Z,15.88
2019-05-17T01:56:47.598Z,15.85
2019-05-17T01:59:17.414Z,15.85
2019-05-17T02:01:48.555Z,15.83
2019-05-17T02:04:17.978Z,15.82
2019-05-17T02:06:47.450Z,15.79
2019-05-17T02:09:33.419Z,15.77
2019-05-17T02:11:48.119Z,15.73
2019-05-17T02:14:17.501Z,15.68
2019-05-17T02:16:46.963Z,15.62
2019-05-17T02:19:17.450Z,15.53
2019-05-17T02:21:47.945Z,15.45
2019-05-17T02:24:17.447Z,15.38
2019-05-17T02:26:47.282Z,15.29
2019-05-17T02:29:16.794Z,15.20
2019-05-17T02:31:47.010Z,15.13
2019-05-17T02:34:16.489Z,15.09
2019-05-17T02:36:46.455Z,15.03
2019-05-17T02:39:15.902Z,14.98
2019-05-17T02:41:45.317Z,14.93
2019-05-17T02:44:16.644Z,14.88
2019-05-17T02:46:46.103Z,14.86
2019-05-17T02:49:15.624Z,14.83
2019-05-17T02:51:45.167Z,14.78
2019-05-17T02:54:14.776Z,14.79
2019-05-17T02:56:44.239Z,14.80
2019-05-17T02:59:13.849Z,14.81
2019-05-17T03:01:44.314Z,14.81
2019-05-17T03:04:14.081Z,14.85
2019-05-17T03:06:44.122Z,14.87
2019-05-17T03:09:13.755Z,14.91
2019-05-17T03:11:43.212Z,14.93
2019-05-17T03:14:13.113Z,14.97
2019-05-17T03:16:43.316Z,15.00
2019-05-17T03:19:13.321Z,15.03
2019-05-17T03:21:43.262Z,15.02
2019-05-17T03:24:13.622Z,15.00
2019-05-17T03:26:43.789Z,14.99
2019-05-17T03:29:13.815Z,14.97
2019-05-17T03:31:57.632Z,14.98
2019-05-17T03:34:18.317Z,14.95
2019-05-17T03:36:47.939Z,14.87
2019-05-17T03:39:17.575Z,14.81
2019-05-17T03:41:47.055Z,14.77
2019-05-17T03:44:16.455Z,14.76
2019-05-17T03:46:46.742Z,14.73
2019-05-17T03:49:16.397Z,14.76
2019-05-17T03:51:45.928Z,14.76
2019-05-17T03:54:15.460Z,14.77
2019-05-17T03:56:44.920Z,14.75
2019-05-17T03:59:14.393Z,14.74
2019-05-17T04:01:43.885Z,14.73
2019-05-17T04:04:13.651Z,14.71
2019-05-17T04:06:43.840Z,14.67
2019-05-17T04:09:14.166Z,14.62
2019-05-17T04:11:43.647Z,14.57
2019-05-17T04:14:13.905Z,14.54
2019-05-17T04:16:43.693Z,14.49
2019-05-17T04:19:13.972Z,14.46
2019-05-17T04:21:43.624Z,14.42
2019-05-17T04:24:13.145Z,14.39
2019-05-17T04:26:43.885Z,14.37
2019-05-17T04:29:13.959Z,14.36
2019-05-17T04:31:43.809Z,14.33
2019-05-17T04:34:13.838Z,14.31
2019-05-17T04:36:43.583Z,14.27
2019-05-17T04:39:13.708Z,14.27
2019-05-17T04:41:49.266Z,14.26
2019-05-17T04:44:14.769Z,14.29
2019-05-17T04:46:44.178Z,14.29
2019-05-17T04:49:14.049Z,14.32
2019-05-17T04:51:44.267Z,14.36
2019-05-17T04:54:14.155Z,14.38
2019-05-17T04:56:43.622Z,14.40
2019-05-17T04:59:13.989Z,14.40
2019-05-17T05:01:43.838Z,14.42
2019-05-17T05:04:15.548Z,14.47
2019-05-17T05:06:45.161Z,14.52
2019-05-17T05:09:14.551Z,14.54
2019-05-17T05:11:53.418Z,14.59
2019-05-17T05:14:15.047Z,14.64
2019-05-17T05:16:44.523Z,14.69
2019-05-17T05:19:14.089Z,14.74
2019-05-17T05:21:43.477Z,14.77
2019-05-17T05:24:12.922Z,14.83
2019-05-17T05:26:42.601Z,14.92
2019-05-17T05:29:12.863Z,15.02
2019-05-17T05:31:42.858Z,15.09
2019-05-17T05:34:12.531Z,15.18
2019-05-17T05:36:42.062Z,15.31
2019-05-17T05:39:11.734Z,15.43
2019-05-17T05:41:42.655Z,15.52
2019-05-17T05:44:12.444Z,15.63
2019-05-17T05:46:42.316Z,15.68
2019-05-17T05:49:12.511Z,15.77
2019-05-17T05:51:42.449Z,15.83
2019-05-17T05:54:12.523Z,15.91
2019-05-17T05:56:42.335Z,16.00
2019-05-17T05:59:12.213Z,16.11
2019-05-17T06:01:42.331Z,16.20
2019-05-17T06:04:11.929Z,16.28
2019-05-17T06:06:41.764Z,16.36
2019-05-17T06:09:12.175Z,16.49
2019-05-17T06:11:41.872Z,16.59
2019-05-17T06:14:12.202Z,16.68
2019-05-17T06:16:42.535Z,16.79
2019-05-17T06:19:12.318Z,16.89
2019-05-17T06:21:42.726Z,16.95
2019-05-17T06:24:12.208Z,17.04
2019-05-17T06:26:42.135Z,17.05
2019-05-17T06:29:11.940Z,17.07
2019-05-17T06:31:43.320Z,17.11
2019-05-17T06:34:13.218Z,17.18
2019-05-17T06:36:42.646Z,17.25
2019-05-17T06:39:12.078Z,17.29
2019-05-17T06:41:42.067Z,17.31
2019-05-17T06:44:12.242Z,17.33
2019-05-17T06:46:42.090Z,17.36
2019-05-17T06:49:11.925Z,17.43
2019-05-17T06:51:42.644Z,17.46
2019-05-17T06:54:12.245Z,17.49
2019-05-17T06:56:41.983Z,17.53
2019-05-17T06:59:11.655Z,17.54
2019-05-17T07:01:41.173Z,17.62
2019-05-17T07:04:10.574Z,17.74
2019-05-17T07:06:40.557Z,17.86
2019-05-17T07:09:10.285Z,17.98
2019-05-17T07:11:40.006Z,18.10
2019-05-17T07:14:09.584Z,18.20
2019-05-17T07:16:39.695Z,18.27
2019-05-17T07:19:10.287Z,18.32
2019-05-17T07:21:40.505Z,18.32
2019-05-17T07:24:10.241Z,18.29
2019-05-17T07:26:39.651Z,18.28
2019-05-17T07:29:10.092Z,18.27
2019-05-17T07:31:40.483Z,18.31
2019-05-17T07:34:10.240Z,18.30
2019-05-17T07:36:39.886Z,18.33
2019-05-17T07:39:10.875Z,18.31
2019-05-17T07:41:40.496Z,18.30
2019-05-17T07:44:10.124Z,18.28
2019-05-17T07:46:40.223Z,18.27
2019-05-17T07:49:10.794Z,18.21
2019-05-17T07:51:40.391Z,18.18
2019-05-17T07:54:10.440Z,18.21
2019-05-17T07:56:40.352Z,18.23
2019-05-17T07:59:09.730Z,18.27
2019-05-17T08:01:41.225Z,18.39
2019-05-17T08:04:11.352Z,18.44
2019-05-17T08:06:40.785Z,18.48
2019-05-17T08:09:13.983Z,18.52
2019-05-17T08:11:41.485Z,18.58
2019-05-17T08:14:10.864Z,18.69
2019-05-17T08:16:40.357Z,18.83
2019-05-17T08:19:09.999Z,18.84
2019-05-17T08:21:39.913Z,18.75
2019-05-17T08:24:10.509Z,18.77
2019-05-17T08:26:40.508Z,18.84
2019-05-17T08:29:10.199Z,18.91
2019-05-17T08:31:40.428Z,18.96
2019-05-17T08:34:10.480Z,19.04
2019-05-17T08:36:40.645Z,19.13
2019-05-17T08:39:10.497Z,19.19
2019-05-17T08:41:40.536Z,19.28
2019-05-17T08:44:10.411Z,19.38
2019-05-17T08:46:40.150Z,19.41
2019-05-17T08:49:09.900Z,19.43
2019-05-17T08:51:39.822Z,19.40
2019-05-17T08:54:10.457Z,19.37
2019-05-17T08:56:40.472Z,19.27
2019-05-17T08:59:10.019Z,19.14
2019-05-17T09:01:41.701Z,19.01
2019-05-17T09:04:12.159Z,18.94
2019-05-17T09:06:41.612Z,18.88
2019-05-17T09:09:11.045Z,18.82
2019-05-17T09:11:40.450Z,18.81
2019-05-17T09:14:10.571Z,18.76
2019-05-17T09:16:40.411Z,18.68
2019-05-17T09:19:10.197Z,18.63
2019-05-17T09:21:39.982Z,18.50
2019-05-17T09:24:10.436Z,18.34
2019-05-17T09:26:40.190Z,18.21
2019-05-17T09:29:10.783Z,18.12
2019-05-17T09:31:41.290Z,18.10
2019-05-17T09:34:11.138Z,18.12
2019-05-17T09:36:41.022Z,18.08
2019-05-17T09:39:14.415Z,18.04
2019-05-17T09:41:55.854Z,18.02
2019-05-17T09:44:26.265Z,17.99
2019-05-17T09:47:10.202Z,17.95
2019-05-17T09:49:52.883Z,17.89
2019-05-17T09:52:22.434Z,17.85
2019-05-17T09:54:52.200Z,17.86
2019-05-17T09:57:21.770Z,17.91
2019-05-17T09:59:52.106Z,17.94
2019-05-17T10:02:21.804Z,17.96
2019-05-17T10:04:51.652Z,17.95
2019-05-17T10:07:22.777Z,17.94
2019-05-17T10:09:59.774Z,17.91
2019-05-17T10:12:29.518Z,17.91
2019-05-17T10:15:03.373Z,17.95
2019-05-17T10:20:10.829Z,18.00
2019-05-17T10:22:40.455Z,18.01
2019-05-17T10:25:12.505Z,18.01
2019-05-17T10:27:42.697Z,18.04
2019-05-17T10:30:12.550Z,18.11
2019-05-17T10:32:43.252Z,18.25
2019-05-17T10:35:13.054Z,18.26
2019-05-17T10:37:44.948Z,18.25
2019-05-17T10:40:20.938Z,18.29
2019-05-17T10:45:30.833Z,18.47
2019-05-17T10:48:00.873Z,18.53
2019-05-17T10:50:35.553Z,18.53
2019-05-17T10:53:22.781Z,18.65
2019-05-17T10:55:51.499Z,18.69
2019-05-17T10:58:22.888Z,18.79
2019-05-17T11:00:53.270Z,18.84
2019-05-17T11:05:59.931Z,18.95
2019-05-17T11:08:41.207Z,18.90
2019-05-17T11:11:10.828Z,18.82
2019-05-17T11:13:40.303Z,18.73
2019-05-17T11:16:09.876Z,18.67
2019-05-17T11:18:40.585Z,18.57
2019-05-17T11:21:11.366Z,18.45
2019-05-17T11:23:41.995Z,18.38
2019-05-17T11:26:13.617Z,18.29
2019-05-17T11:28:45.948Z,18.23
2019-05-17T11:31:40.582Z,18.09
2019-05-17T11:34:12.939Z,18.02
2019-05-17T11:36:42.439Z,17.95
2019-05-17T11:39:16.922Z,17.95
2019-05-17T11:41:46.894Z,18.00
2019-05-17T11:44:29.988Z,18.08
2019-05-17T11:47:15.779Z,18.14
2019-05-17T11:49:45.684Z,18.21
2019-05-17T11:52:15.410Z,18.37
2019-05-17T11:54:45.906Z,18.48
2019-05-17T11:57:18.442Z,18.54
2019-05-17T11:59:48.927Z,18.66
2019-05-17T12:02:21.471Z,18.80
2019-05-17T12:04:54.674Z,18.92
2019-05-17T12:07:27.907Z,18.97
2019-05-17T12:09:57.887Z,18.97
2019-05-17T12:12:27.493Z,18.95
2019-05-17T12:14:57.306Z,18.91
2019-05-17T12:17:26.972Z,18.87
2019-05-17T12:19:56.510Z,18.82
2019-05-17T12:22:27.818Z,18.80
2019-05-17T12:24:57.247Z,18.80
2019-05-17T12:27:26.808Z,18.80
2019-05-17T12:29:56.384Z,18.83
2019-05-17T12:32:26.433Z,18.87
2019-05-17T12:34:55.955Z,18.91
2019-05-17T12:37:25.596Z,18.94
2019-05-17T12:39:55.255Z,18.94
2019-05-17T12:42:24.885Z,18.91
2019-05-17T12:44:54.533Z,18.83
2019-05-17T12:47:23.982Z,18.76
2019-05-17T12:49:53.471Z,18.72
2019-05-17T12:52:23.085Z,18.67
2019-05-17T12:54:53.175Z,18.66
2019-05-17T12:57:23.016Z,18.67
2019-05-17T12:59:59.037Z,18.71
2019-05-17T13:02:28.589Z,18.77
2019-05-17T13:05:02.809Z,18.85
2019-05-17T13:07:32.434Z,18.87
2019-05-17T13:10:02.154Z,18.87
2019-05-17T13:12:31.950Z,18.83
2019-05-17T13:15:02.050Z,18.82
2019-05-17T13:17:33.665Z,18.82
2019-05-17T13:20:03.944Z,18.80
2019-05-17T13:22:35.396Z,18.81
2019-05-17T13:25:05.964Z,18.87
2019-05-17T13:27:41.888Z,18.92
2019-05-17T13:30:12.836Z,18.97
2019-05-17T13:32:42.721Z,18.96
2019-05-17T13:35:12.508Z,19.02
2019-05-17T13:37:42.358Z,19.08
2019-05-17T13:40:19.663Z,19.09
2019-05-17T13:42:49.719Z,19.13
2019-05-17T13:45:28.879Z,19.18
2019-05-17T13:47:59.311Z,19.16
2019-05-17T13:50:29.199Z,19.12
2019-05-17T13:53:00.270Z,19.10
2019-05-17T13:55:29.854Z,19.13
2019-05-17T13:58:00.603Z,19.05
2019-05-17T14:00:44.836Z,19.01
2019-05-17T14:06:04.261Z,19.02
2019-05-17T14:08:33.820Z,19.06
2019-05-17T14:11:03.716Z,19.14
2019-05-17T14:13:46.369Z,19.25
2019-05-17T14:16:17.992Z,19.38
2019-05-17T14:18:52.072Z,19.45
2019-05-17T14:21:24.694Z,19.47
2019-05-17T14:23:56.708Z,19.51
2019-05-17T14:26:29.458Z,19.56
2019-05-17T14:28:59.513Z,19.59
2019-05-17T14:31:29.657Z,19.56
2019-05-17T14:33:59.161Z,19.54
2019-05-17T14:36:28.689Z,19.52
2019-05-17T14:38:58.551Z,19.50
2019-05-17T14:41:28.231Z,19.51
2019-05-17T14:43:57.808Z,19.54
2019-05-17T14:46:27.439Z,19.55
2019-05-17T14:49:00.530Z,19.57
2019-05-17T14:51:30.230Z,19.56
2019-05-17T14:53:59.936Z,19.52
2019-05-17T14:56:39.390Z,19.47
2019-05-17T14:59:09.531Z,19.49
2019-05-17T15:01:45.675Z,19.55
2019-05-17T15:04:20.139Z,19.55
2019-05-17T15:06:50.075Z,19.63
2019-05-17T15:09:57.823Z,19.71
2019-05-17T15:12:28.921Z,19.78
2019-05-17T15:14:58.526Z,19.84
2019-05-17T15:17:35.321Z,19.91
2019-05-17T15:20:05.499Z,19.99
2019-05-17T15:28:14.355Z,20.18
2019-05-17T15:30:54.247Z,20.20
2019-05-17T15:33:33.570Z,20.14
2019-05-17T15:36:05.011Z,20.06
2019-05-17T15:38:39.867Z,20.01
2019-05-17T15:41:11.689Z,19.99
2019-05-17T15:43:44.009Z,19.98
2019-05-17T15:46:19.857Z,19.92
2019-05-17T15:48:52.252Z,19.88
2019-05-17T15:51:22.272Z,19.80
2019-05-17T15:54:02.318Z,19.72
2019-05-17T15:56:34.255Z,19.74
2019-05-17T15:59:04.277Z,19.76
2019-05-17T16:02:12.147Z,19.84
2019-05-17T16:04:42.431Z,19.89
2019-05-17T16:07:18.154Z,20.02
2019-05-17T16:09:48.430Z,20.06
2019-05-17T16:12:20.419Z,19.99
2019-05-17T16:14:50.287Z,19.87
2019-05-17T16:17:23.098Z,19.77
2019-05-17T16:19:55.681Z,19.68
2019-05-17T16:25:18.363Z,19.57
2019-05-17T16:28:46.059Z,19.51
2019-05-17T16:31:17.988Z,19.49
2019-05-17T16:33:50.765Z,19.40
2019-05-17T16:36:18.888Z,19.36
2019-05-17T16:38:48.572Z,19.33
2019-05-17T16:41:20.865Z,19.30
2019-05-17T16:43:56.288Z,19.23
2019-05-17T16:46:26.161Z,19.19
2019-05-17T16:49:20.244Z,19.16
2019-05-17T17:16:46.314Z,19.09
2019-05-17T17:28:43.739Z,19.36
2019-05-17T17:33:59.492Z,19.52
2019-05-17T17:36:51.887Z,19.60
2019-05-17T17:39:23.095Z,19.62
2019-05-17T17:42:13.393Z,19.63
2019-05-17T17:44:48.322Z,19.64
2019-05-17T17:47:23.083Z,19.60
2019-05-17T17:50:47.461Z,19.55
2019-05-17T17:53:44.207Z,19.55
2019-05-17T18:01:55.219Z,19.43
2019-05-17T18:04:27.887Z,19.45
2019-05-17T18:06:59.577Z,19.39
2019-05-17T18:09:30.986Z,19.27
2019-05-17T18:12:02.466Z,19.16
2019-05-17T18:14:41.258Z,19.07
2019-05-17T18:17:11.877Z,18.97
2019-05-17T18:19:44.492Z,18.89
2019-05-17T18:22:15.804Z,18.77
2019-05-17T18:24:45.627Z,18.68
2019-05-17T18:27:19.018Z,18.60
2019-05-17T18:29:52.501Z,18.56
2019-05-17T18:32:24.785Z,18.55
2019-05-17T18:35:16.341Z,18.54
2019-05-17T18:37:48.503Z,18.53
2019-05-17T18:40:21.333Z,18.53
2019-05-17T18:42:55.704Z,18.49
2019-05-17T18:48:03.419Z,18.42
2019-05-17T18:50:36.845Z,18.36
2019-05-17T18:53:38.375Z,18.32
2019-05-17T18:59:32.206Z,18.18
2019-05-17T19:02:25.550Z,18.09
2019-05-17T19:05:23.668Z,18.05
2019-05-17T19:11:13.268Z,17.96
2019-05-17T19:14:03.884Z,17.89
2019-05-17T19:16:34.319Z,17.88
2019-05-17T19:19:05.994Z,17.86
2019-05-17T19:21:42.782Z,17.85
2019-05-17T19:24:13.887Z,17.85
2019-05-17T19:26:44.285Z,17.86
2019-05-17T19:29:17.327Z,17.86
2019-05-17T19:32:03.206Z,17.87
2019-05-17T19:37:36.441Z,17.87
2019-05-17T19:40:07.524Z,17.82
2019-05-17T19:42:37.169Z,17.79
2019-05-17T19:45:07.796Z,17.76
2019-05-17T19:47:37.547Z,17.68
2019-05-17T19:50:09.568Z,17.66
2019-05-17T19:52:44.514Z,17.64
2019-05-17T19:55:14.407Z,17.63
2019-05-17T19:57:44.041Z,17.62
2019-05-17T20:00:13.713Z,17.61
2019-05-17T20:02:43.268Z,17.62
2019-05-17T20:05:15.611Z,17.61
2019-05-17T20:07:45.953Z,17.59
2019-05-17T20:10:17.805Z,17.59
2019-05-17T20:12:48.438Z,17.58
2019-05-17T20:15:19.765Z,17.56
2019-05-17T20:17:51.797Z,17.54
2019-05-17T20:20:21.937Z,17.53
2019-05-17T20:22:52.658Z,17.52
2019-05-17T20:25:22.379Z,17.55
2019-05-17T20:27:53.552Z,17.59
2019-05-17T20:30:23.247Z,17.61
2019-05-17T20:32:53.971Z,17.62
2019-05-17T20:35:25.481Z,17.62
2019-05-17T20:37:56.081Z,17.62
2019-05-17T20:40:27.627Z,17.59
2019-05-17T20:42:59.326Z,17.58
2019-05-17T20:45:33.855Z,17.56
2019-05-17T20:48:06.395Z,17.52
2019-05-17T20:50:38.674Z,17.51
2019-05-17T20:53:18.410Z,17.55
2019-05-17T20:55:42.933Z,17.56
2019-05-17T20:58:12.693Z,17.55
2019-05-17T21:00:42.825Z,17.58
2019-05-17T21:03:13.939Z,17.55
2019-05-17T21:05:46.886Z,17.53
2019-05-17T21:08:16.538Z,17.51
2019-05-17T21:10:46.486Z,17.46
2019-05-17T21:13:17.142Z,17.48
2019-05-17T21:15:48.161Z,17.47
2019-05-17T21:18:18.186Z,17.44
2019-05-17T21:20:49.051Z,17.41
2019-05-17T21:23:18.698Z,17.38
2019-05-17T21:25:48.257Z,17.38
2019-05-17T21:28:18.383Z,17.40
2019-05-17T21:30:48.056Z,17.43
2019-05-17T21:33:17.705Z,17.45
2019-05-17T21:35:52.608Z,17.45
2019-05-17T21:38:23.054Z,17.44
2019-05-17T21:40:52.991Z,17.47
2019-05-17T21:43:26.453Z,17.48
2019-05-17T21:46:03.991Z,17.44
2019-05-17T21:48:32.939Z,17.44
2019-05-17T21:51:02.452Z,17.47
2019-05-17T21:53:31.936Z,17.47
2019-05-17T21:56:03.639Z,17.48
2019-05-17T21:58:33.067Z,17.49
2019-05-17T22:01:17.601Z,17.46
2019-05-17T22:03:47.562Z,17.45
2019-05-17T22:06:17.717Z,17.45
2019-05-17T22:08:47.312Z,17.45
2019-05-17T22:11:17.275Z,17.44
2019-05-17T22:13:46.795Z,17.44
2019-05-17T22:16:19.633Z,17.44
2019-05-17T22:18:49.879Z,17.40
2019-05-17T22:21:19.265Z,17.40
2019-05-17T22:23:49.299Z,17.42
2019-05-17T22:26:18.849Z,17.40
2019-05-17T22:28:48.216Z,17.40
2019-05-17T22:31:17.642Z,17.37
2019-05-17T22:33:47.099Z,17.36
2019-05-17T22:36:16.461Z,17.36
2019-05-17T22:38:48.222Z,17.34
2019-05-17T22:41:18.533Z,17.32
2019-05-17T22:43:48.017Z,17.33
2019-05-17T22:46:17.464Z,17.34
2019-05-17T22:48:47.089Z,17.36
2019-05-17T22:51:18.136Z,17.36
2019-05-17T22:53:47.701Z,17.41
2019-05-17T22:56:17.208Z,17.43
2019-05-17T22:58:47.118Z,17.44
2019-05-17T23:01:18.275Z,17.45
2019-05-17T23:03:47.695Z,17.42
2019-05-17T23:06:18.368Z,17.38
2019-05-17T23:08:48.141Z,17.30
2019-05-17T23:11:17.672Z,17.22
2019-05-17T23:13:47.221Z,17.19
2019-05-17T23:16:17.813Z,17.15
2019-05-17T23:19:05.474Z,17.16
2019-05-17T23:21:35.571Z,17.16
2019-05-17T23:24:05.666Z,17.06
2019-05-17T23:26:35.060Z,17.08
2019-05-17T23:29:05.432Z,17.11
2019-05-17T23:31:35.226Z,17.12
2019-05-17T23:34:07.180Z,17.11
2019-05-17T23:36:39.856Z,17.13
2019-05-17T23:39:09.604Z,17.11
2019-05-17T23:41:39.590Z,17.10
2019-05-17T23:44:10.244Z,17.09
2019-05-17T23:46:42.020Z,17.10
2019-05-17T23:49:11.694Z,17.10
2019-05-17T23:51:41.220Z,17.07
2019-05-17T23:54:13.303Z,17.03
2019-05-17T23:56:44.151Z,17.04
2019-05-17T23:59:15.534Z,17.04
